createdAt,value
2018-08-16T00:00:54.176Z,6.10
2018-08-16T00:03:24.088Z,6.03
2018-08-16T00:05:54.104Z,5.80
2018-08-16T00:08:24.302Z,6.00
2018-08-16T00:10:54.101Z,5.67
2018-08-16T00:13:24.231Z,6.00
2018-08-16T00:15:54.322Z,6.17
2018-08-16T00:18:24.365Z,5.77
2018-08-16T00:20:54.405Z,6.23
2018-08-16T00:23:24.430Z,5.80
2018-08-16T00:25:54.336Z,5.90
2018-08-16T00:28:24.364Z,6.17
2018-08-16T00:30:54.226Z,6.23
2018-08-16T00:33:24.139Z,6.70
2018-08-16T00:35:54.114Z,6.27
2018-08-16T00:38:24.182Z,6.57
2018-08-16T00:40:54.088Z,6.77
2018-08-16T00:43:23.951Z,6.17
2018-08-16T00:45:53.904Z,6.47
2018-08-16T00:48:23.788Z,6.60
2018-08-16T00:50:53.798Z,6.53
2018-08-16T00:53:23.657Z,6.03
2018-08-16T00:55:54.185Z,6.20
2018-08-16T00:58:24.180Z,6.37
2018-08-16T01:00:54.288Z,6.37
2018-08-16T01:03:24.276Z,6.20
2018-08-16T01:05:54.081Z,6.73
2018-08-16T01:08:23.891Z,6.33
2018-08-16T01:10:53.696Z,6.20
2018-08-16T01:13:23.610Z,6.33
2018-08-16T01:15:53.558Z,6.70
2018-08-16T01:18:23.436Z,6.30
2018-08-16T01:20:53.484Z,7.00
2018-08-16T01:23:23.319Z,6.40
2018-08-16T01:25:53.358Z,6.33
2018-08-16T01:28:23.328Z,6.73
2018-08-16T01:30:53.232Z,6.90
2018-08-16T01:33:23.297Z,7.53
2018-08-16T01:35:53.328Z,6.23
2018-08-16T01:38:23.300Z,6.97
2018-08-16T01:40:53.401Z,6.50
2018-08-16T01:43:23.355Z,6.80
2018-08-16T01:45:53.263Z,7.17
2018-08-16T01:48:23.080Z,7.37
2018-08-16T01:50:52.998Z,6.60
2018-08-16T01:53:22.882Z,7.00
2018-08-16T01:55:52.810Z,7.07
2018-08-16T01:58:22.600Z,7.10
2018-08-16T02:00:52.667Z,6.90
2018-08-16T02:03:22.735Z,6.90
2018-08-16T02:05:52.781Z,6.80
2018-08-16T02:08:22.825Z,6.30
2018-08-16T02:10:52.614Z,6.80
2018-08-16T02:13:23.466Z,6.17
2018-08-16T02:15:53.360Z,6.83
2018-08-16T02:18:23.363Z,6.60
2018-08-16T02:20:53.372Z,7.00
2018-08-16T02:23:23.202Z,7.00
2018-08-16T02:25:53.126Z,6.73
2018-08-16T02:28:22.964Z,6.77
2018-08-16T02:30:53.004Z,6.20
2018-08-16T02:33:22.880Z,6.70
2018-08-16T02:35:52.941Z,6.70
2018-08-16T02:38:22.932Z,7.07
2018-08-16T02:40:52.996Z,6.47
2018-08-16T02:43:22.908Z,6.90
2018-08-16T02:45:52.697Z,6.10
2018-08-16T02:48:22.626Z,6.90
2018-08-16T02:50:52.523Z,7.20
2018-08-16T02:53:22.681Z,6.60
2018-08-16T02:55:52.805Z,6.13
2018-08-16T02:58:22.729Z,7.03
2018-08-16T03:00:52.838Z,7.13
2018-08-16T03:03:22.691Z,7.37
2018-08-16T03:05:52.604Z,7.17
2018-08-16T03:08:22.822Z,6.67
2018-08-16T03:10:52.758Z,6.83
2018-08-16T03:13:22.524Z,7.00
2018-08-16T03:15:52.356Z,7.20
2018-08-16T03:18:22.396Z,6.43
2018-08-16T03:20:52.386Z,6.57
2018-08-16T03:23:22.180Z,6.70
2018-08-16T03:25:52.244Z,7.00
2018-08-16T03:28:22.023Z,7.27
2018-08-16T03:30:51.845Z,7.03
2018-08-16T03:33:21.900Z,6.43
2018-08-16T03:35:51.788Z,6.70
2018-08-16T03:38:21.756Z,6.87
2018-08-16T03:40:51.586Z,7.17
2018-08-16T03:43:21.583Z,6.73
2018-08-16T03:45:51.506Z,6.67
2018-08-16T03:48:21.373Z,6.90
2018-08-16T03:50:51.396Z,6.77
2018-08-16T03:53:21.304Z,7.37
2018-08-16T03:55:51.331Z,7.30
2018-08-16T03:58:21.236Z,7.20
2018-08-16T04:00:51.352Z,7.63
2018-08-16T04:03:21.587Z,7.07
2018-08-16T04:05:51.590Z,7.00
2018-08-16T04:08:21.384Z,7.57
2018-08-16T04:10:51.382Z,8.63
2018-08-16T04:13:21.238Z,7.23
2018-08-16T04:15:51.068Z,7.57
2018-08-16T04:18:20.961Z,7.70
2018-08-16T04:20:50.788Z,7.70
2018-08-16T04:23:20.684Z,6.90
2018-08-16T04:25:50.627Z,7.40
2018-08-16T04:28:20.719Z,7.67
2018-08-16T04:30:50.589Z,7.63
2018-08-16T04:33:20.482Z,6.87
2018-08-16T04:35:50.353Z,7.57
2018-08-16T04:38:20.177Z,6.77
2018-08-16T04:40:50.184Z,7.40
2018-08-16T04:43:19.971Z,7.40
2018-08-16T04:45:50.127Z,7.40
2018-08-16T04:48:19.992Z,7.70
2018-08-16T04:50:49.981Z,7.10
2018-08-16T04:53:19.884Z,6.80
2018-08-16T04:55:49.917Z,7.83
2018-08-16T04:58:19.777Z,7.33
2018-08-16T05:00:49.745Z,7.00
2018-08-16T05:03:19.771Z,7.07
2018-08-16T05:05:49.529Z,7.40
2018-08-16T05:08:19.480Z,7.67
2018-08-16T05:10:49.285Z,7.30
2018-08-16T05:13:19.076Z,7.60
2018-08-16T05:15:49.020Z,7.40
2018-08-16T05:18:18.941Z,7.53
2018-08-16T05:20:48.831Z,7.40
2018-08-16T05:23:18.795Z,8.03
2018-08-16T05:25:48.670Z,7.50
2018-08-16T05:28:18.460Z,7.20
2018-08-16T05:30:48.345Z,7.50
2018-08-16T05:33:18.232Z,7.43
2018-08-16T05:35:48.097Z,7.37
2018-08-16T05:38:17.996Z,8.37
2018-08-16T05:40:48.026Z,8.20
2018-08-16T05:43:18.371Z,7.30
2018-08-16T05:45:48.414Z,8.60
2018-08-16T05:48:18.348Z,7.80
2018-08-16T05:50:48.224Z,8.03
2018-08-16T05:53:18.097Z,8.10
2018-08-16T05:55:47.965Z,7.60
2018-08-16T05:58:17.891Z,8.17
2018-08-16T06:00:47.908Z,7.70
2018-08-16T06:03:17.818Z,7.73
2018-08-16T06:05:47.793Z,7.83
2018-08-16T06:08:17.543Z,8.57
2018-08-16T06:10:47.367Z,8.70
2018-08-16T06:13:17.281Z,7.60
2018-08-16T06:15:47.209Z,7.63
2018-08-16T06:18:17.146Z,7.97
2018-08-16T06:20:47.069Z,7.40
2018-08-16T06:23:17.024Z,8.10
2018-08-16T06:25:46.988Z,8.47
2018-08-16T06:28:16.941Z,8.03
2018-08-16T06:30:46.784Z,8.73
2018-08-16T06:33:16.717Z,8.43
2018-08-16T06:35:46.619Z,7.97
2018-08-16T06:38:16.738Z,7.20
2018-08-16T06:40:46.933Z,8.40
2018-08-16T06:43:17.211Z,7.70
2018-08-16T06:45:47.336Z,8.10
2018-08-16T06:48:17.518Z,7.83
2018-08-16T06:50:47.581Z,8.33
2018-08-16T06:53:17.906Z,8.40
2018-08-16T06:55:47.897Z,8.70
2018-08-16T06:58:17.833Z,9.50
2018-08-16T07:00:47.857Z,9.73
2018-08-16T07:03:17.733Z,9.60
2018-08-16T07:05:47.581Z,9.07
2018-08-16T07:08:17.736Z,8.90
2018-08-16T07:10:47.622Z,8.67
2018-08-16T07:13:17.701Z,9.47
2018-08-16T07:15:47.857Z,10.17
2018-08-16T07:18:17.760Z,8.97
2018-08-16T07:20:47.579Z,10.47
2018-08-16T07:23:18.023Z,9.10
2018-08-16T07:25:47.927Z,9.63
2018-08-16T07:28:17.999Z,10.27
2018-08-16T07:30:47.969Z,9.90
2018-08-16T07:33:17.852Z,8.80
2018-08-16T07:35:47.752Z,9.47
2018-08-16T07:38:18.227Z,9.53
2018-08-16T07:40:48.179Z,9.00
2018-08-16T07:43:18.181Z,9.90
2018-08-16T07:45:50.010Z,8.87
2018-08-16T07:48:20.220Z,10.30
2018-08-16T07:50:50.165Z,10.30
2018-08-16T07:53:20.155Z,10.73
2018-08-16T07:55:50.495Z,11.33
2018-08-16T07:58:22.301Z,11.03
2018-08-16T08:00:52.251Z,10.60
2018-08-16T08:03:22.620Z,11.07
2018-08-16T08:05:52.609Z,10.67
2018-08-16T08:08:22.512Z,10.83
2018-08-16T08:10:52.510Z,10.50
2018-08-16T08:13:22.486Z,10.40
2018-08-16T08:15:52.458Z,9.90
2018-08-16T08:18:22.623Z,10.20
2018-08-16T08:20:52.604Z,10.90
2018-08-16T08:23:22.553Z,9.80
2018-08-16T08:25:52.730Z,9.63
2018-08-16T08:28:22.717Z,11.07
2018-08-16T08:30:52.789Z,9.97
2018-08-16T08:33:22.691Z,10.60
2018-08-16T08:37:06.973Z,10.43
2018-08-16T08:39:36.776Z,9.93
2018-08-16T08:42:06.631Z,10.97
2018-08-16T08:44:36.737Z,10.73
2018-08-16T08:47:06.907Z,10.40
2018-08-16T08:49:36.847Z,10.20
2018-08-16T08:52:07.070Z,9.30
2018-08-16T08:54:55.859Z,9.97
2018-08-16T08:57:42.459Z,10.23
2018-08-16T09:00:12.436Z,9.30
2018-08-16T09:02:42.359Z,9.23
2018-08-16T09:05:12.231Z,9.10
2018-08-16T09:07:42.437Z,9.73
2018-08-16T09:11:27.089Z,9.50
2018-08-16T09:15:15.628Z,10.47
2018-08-16T09:17:45.646Z,9.40
2018-08-16T09:20:15.649Z,9.47
2018-08-16T09:22:45.868Z,9.20
2018-08-16T09:25:15.740Z,10.70
2018-08-16T09:27:45.527Z,10.57
2018-08-16T09:31:31.363Z,10.93
2018-08-16T09:34:17.749Z,11.73
2018-08-16T09:36:47.877Z,11.07
2018-08-16T09:39:17.951Z,11.30
2018-08-16T09:41:48.196Z,11.27
2018-08-16T09:44:18.068Z,11.03
2018-08-16T09:47:11.564Z,11.70
2018-08-16T09:49:51.528Z,11.70
2018-08-16T09:52:22.495Z,10.23
2018-08-16T09:54:52.400Z,11.20
2018-08-16T09:57:22.261Z,10.80
2018-08-16T09:59:52.434Z,12.90
2018-08-16T10:02:22.372Z,12.33
2018-08-16T10:04:52.311Z,11.73
2018-08-16T10:07:22.440Z,11.13
2018-08-16T10:09:52.461Z,11.63
2018-08-16T10:12:22.364Z,12.10
2018-08-16T10:14:52.429Z,13.03
2018-08-16T10:17:22.640Z,11.57
2018-08-16T10:19:52.976Z,11.20
2018-08-16T10:22:23.003Z,12.03
2018-08-16T10:24:53.340Z,11.30
2018-08-16T10:27:23.191Z,10.50
2018-08-16T10:29:53.217Z,9.97
2018-08-16T10:32:23.391Z,11.60
2018-08-16T10:34:53.478Z,10.30
2018-08-16T10:37:23.447Z,11.50
2018-08-16T10:39:53.324Z,12.17
2018-08-16T10:42:23.093Z,11.63
2018-08-16T10:44:53.115Z,11.80
2018-08-16T10:47:23.368Z,11.93
2018-08-16T10:49:55.117Z,11.20
2018-08-16T10:52:24.956Z,12.07
2018-08-16T10:54:55.351Z,12.70
2018-08-16T10:57:25.355Z,10.70
2018-08-16T10:59:55.330Z,11.23
2018-08-16T11:02:25.264Z,11.53
2018-08-16T11:04:55.345Z,11.70
2018-08-16T11:07:25.319Z,10.97
2018-08-16T11:09:55.311Z,11.63
2018-08-16T11:12:25.208Z,11.50
2018-08-16T11:14:55.080Z,12.43
2018-08-16T11:17:24.979Z,11.63
2018-08-16T11:19:55.251Z,12.70
2018-08-16T11:22:25.420Z,12.03
2018-08-16T11:24:55.641Z,12.57
2018-08-16T11:27:25.561Z,11.97
2018-08-16T11:29:55.664Z,12.63
2018-08-16T11:32:25.779Z,14.07
2018-08-16T11:34:55.642Z,15.17
2018-08-16T11:37:25.605Z,14.23
2018-08-16T11:39:55.619Z,13.33
2018-08-16T11:42:25.507Z,12.87
2018-08-16T11:44:55.508Z,13.03
2018-08-16T11:47:25.740Z,12.40
2018-08-16T11:49:56.041Z,11.93
2018-08-16T11:52:26.257Z,12.07
2018-08-16T11:54:56.409Z,12.60
2018-08-16T11:57:26.479Z,11.43
2018-08-16T11:59:56.332Z,11.73
2018-08-16T12:02:26.323Z,12.57
2018-08-16T12:04:56.267Z,11.50
2018-08-16T12:07:26.135Z,11.80
2018-08-16T12:09:55.966Z,12.33
2018-08-16T12:12:26.265Z,11.60
2018-08-16T12:14:56.248Z,11.63
2018-08-16T12:17:26.368Z,12.53
2018-08-16T12:19:56.463Z,12.30
2018-08-16T12:22:26.465Z,11.83
2018-08-16T12:24:56.390Z,12.33
2018-08-16T12:27:26.512Z,11.83
2018-08-16T12:29:56.662Z,11.63
2018-08-16T12:32:27.054Z,12.83
2018-08-16T12:34:57.184Z,12.50
2018-08-16T12:37:27.020Z,12.13
2018-08-16T12:39:56.819Z,12.37
2018-08-16T12:42:27.016Z,11.17
2018-08-16T12:44:57.090Z,10.70
2018-08-16T12:47:27.114Z,11.80
2018-08-16T12:49:56.926Z,11.10
2018-08-16T12:52:26.788Z,11.73
2018-08-16T12:54:57.100Z,11.70
2018-08-16T12:57:27.267Z,12.13
2018-08-16T12:59:57.370Z,19.17
2018-08-16T13:02:27.442Z,19.47
2018-08-16T13:04:57.706Z,15.47
2018-08-16T13:07:27.785Z,13.70
2018-08-16T13:09:57.818Z,12.80
2018-08-16T13:12:27.670Z,12.17
2018-08-16T13:14:57.561Z,11.20
2018-08-16T13:17:27.407Z,11.60
2018-08-16T13:19:57.197Z,12.23
2018-08-16T13:22:27.422Z,12.87
2018-08-16T13:24:57.427Z,11.33
2018-08-16T13:27:27.659Z,13.10
2018-08-16T13:29:57.877Z,11.17
2018-08-16T13:32:28.132Z,13.17
2018-08-16T13:34:57.899Z,12.20
2018-08-16T13:37:27.827Z,11.20
2018-08-16T13:39:57.853Z,11.67
2018-08-16T13:42:28.203Z,11.37
2018-08-16T13:44:58.284Z,11.73
2018-08-16T13:47:28.244Z,11.27
2018-08-16T13:49:58.100Z,10.67
2018-08-16T13:52:27.989Z,11.33
2018-08-16T13:54:57.849Z,11.00
2018-08-16T13:57:27.731Z,11.50
2018-08-16T13:59:57.661Z,10.30
2018-08-16T14:02:27.734Z,10.33
2018-08-16T14:04:57.597Z,10.13
2018-08-16T14:07:27.633Z,11.87
2018-08-16T14:09:57.731Z,11.90
2018-08-16T14:12:27.879Z,11.00
2018-08-16T14:14:58.229Z,12.20
2018-08-16T14:17:28.080Z,9.93
2018-08-16T14:19:58.188Z,10.10
2018-08-16T14:22:28.374Z,10.53
2018-08-16T14:24:58.424Z,11.33
2018-08-16T14:27:28.462Z,10.77
2018-08-16T14:29:58.304Z,10.40
2018-08-16T14:32:28.376Z,10.13
2018-08-16T14:34:58.405Z,10.33
2018-08-16T14:37:28.272Z,9.87
2018-08-16T14:39:58.357Z,10.67
2018-08-16T14:42:28.460Z,10.32
2018-08-16T14:44:58.416Z,10.90
2018-08-16T14:47:28.249Z,10.70
2018-08-16T14:49:58.342Z,11.08
2018-08-16T14:52:28.352Z,10.07
2018-08-16T14:54:58.457Z,10.97
2018-08-16T14:57:28.272Z,11.40
2018-08-16T14:59:58.193Z,10.70
2018-08-16T15:02:27.976Z,11.23
2018-08-16T15:04:58.402Z,11.13
2018-08-16T15:07:28.308Z,9.77
2018-08-16T15:09:58.193Z,10.60
2018-08-16T15:12:28.078Z,10.17
2018-08-16T15:14:58.179Z,10.97
2018-08-16T15:17:28.261Z,10.70
2018-08-16T15:19:58.104Z,11.30
2018-08-16T15:22:28.099Z,11.07
2018-08-16T15:24:57.973Z,10.33
2018-08-16T15:27:27.909Z,10.97
2018-08-16T15:29:57.736Z,10.77
2018-08-16T15:32:27.622Z,11.40
2018-08-16T15:34:57.596Z,10.87
2018-08-16T15:37:27.549Z,11.23
2018-08-16T15:39:57.451Z,11.87
2018-08-16T15:42:27.293Z,10.53
2018-08-16T15:44:57.205Z,10.97
2018-08-16T15:47:27.411Z,10.13
2018-08-16T15:49:57.291Z,10.90
2018-08-16T15:52:27.033Z,10.60
2018-08-16T15:54:56.973Z,10.20
2018-08-16T15:57:26.795Z,10.40
2018-08-16T15:59:56.925Z,11.10
2018-08-16T16:02:26.956Z,9.50
2018-08-16T16:04:57.041Z,10.30
2018-08-16T16:07:27.066Z,10.50
2018-08-16T16:09:57.061Z,9.57
2018-08-16T16:12:27.276Z,10.17
2018-08-16T16:14:57.598Z,9.63
2018-08-16T16:17:27.836Z,10.00
2018-08-16T16:19:57.739Z,11.03
2018-08-16T16:22:27.837Z,10.90
2018-08-16T16:24:57.893Z,10.13
2018-08-16T16:27:27.968Z,9.40
2018-08-16T16:29:57.916Z,9.30
2018-08-16T16:32:27.998Z,9.20
2018-08-16T16:34:57.941Z,10.20
2018-08-16T16:37:28.066Z,10.60
2018-08-16T16:39:58.110Z,10.40
2018-08-16T16:42:28.254Z,9.63
2018-08-16T16:44:58.190Z,9.77
2018-08-16T16:47:28.192Z,10.70
2018-08-16T16:49:58.294Z,9.47
2018-08-16T16:52:28.425Z,10.30
2018-08-16T16:54:58.288Z,10.13
2018-08-16T16:57:28.375Z,9.57
2018-08-16T16:59:58.561Z,10.10
2018-08-16T17:02:28.450Z,10.80
2018-08-16T17:04:58.556Z,10.00
2018-08-16T17:07:28.567Z,10.63
2018-08-16T17:09:58.600Z,10.30
2018-08-16T17:12:28.552Z,9.47
2018-08-16T17:14:58.592Z,9.80
2018-08-16T17:17:28.733Z,10.07
2018-08-16T17:19:58.604Z,10.43
2018-08-16T17:22:28.513Z,10.20
2018-08-16T17:24:58.541Z,10.20
2018-08-16T17:27:28.946Z,11.50
2018-08-16T17:29:58.827Z,9.53
2018-08-16T17:32:28.802Z,11.27
2018-08-16T17:34:58.767Z,11.10
2018-08-16T17:37:28.893Z,10.43
2018-08-16T17:39:58.796Z,10.10
2018-08-16T17:42:28.939Z,11.77
2018-08-16T17:45:00.644Z,10.93
2018-08-16T17:47:30.664Z,10.67
2018-08-16T17:50:00.639Z,11.00
2018-08-16T17:52:30.729Z,11.37
2018-08-16T17:55:00.736Z,11.33
2018-08-16T17:57:30.984Z,10.50
2018-08-16T18:00:01.007Z,12.20
2018-08-16T18:02:31.278Z,11.10
2018-08-16T18:05:01.175Z,12.73
2018-08-16T18:07:31.095Z,10.67
2018-08-16T18:10:01.091Z,11.67
2018-08-16T18:12:31.059Z,11.50
2018-08-16T18:15:00.920Z,10.73
2018-08-16T18:17:30.845Z,10.27
2018-08-16T18:20:00.741Z,10.63
2018-08-16T18:22:30.640Z,11.00
2018-08-16T18:25:00.632Z,10.47
2018-08-16T18:27:30.667Z,11.97
2018-08-16T18:30:00.588Z,12.30
2018-08-16T18:32:30.376Z,12.80
2018-08-16T18:35:00.192Z,13.77
2018-08-16T18:37:30.173Z,14.23
2018-08-16T18:40:00.022Z,13.97
2018-08-16T18:42:30.191Z,13.37
2018-08-16T18:45:00.127Z,12.07
2018-08-16T18:47:30.299Z,12.47
2018-08-16T18:50:00.215Z,12.00
2018-08-16T18:52:30.534Z,12.37
2018-08-16T18:55:00.345Z,11.87
2018-08-16T18:57:30.447Z,12.23
2018-08-16T19:00:00.332Z,12.80
2018-08-16T19:02:30.201Z,12.57
2018-08-16T19:05:00.261Z,10.83
2018-08-16T19:07:30.093Z,12.90
2018-08-16T19:10:00.274Z,11.93
2018-08-16T19:12:30.357Z,13.23
2018-08-16T19:15:00.393Z,12.57
2018-08-16T19:17:30.514Z,12.83
2018-08-16T19:20:00.416Z,11.77
2018-08-16T19:22:30.511Z,11.40
2018-08-16T19:25:00.355Z,11.53
2018-08-16T19:27:30.347Z,11.50
2018-08-16T19:30:00.343Z,11.20
2018-08-16T19:32:30.178Z,11.90
2018-08-16T19:35:00.208Z,11.30
2018-08-16T19:37:30.171Z,11.30
2018-08-16T19:40:00.104Z,11.83
2018-08-16T19:42:30.115Z,12.23
2018-08-16T19:45:00.147Z,12.53
2018-08-16T19:47:29.976Z,12.67
2018-08-16T19:50:00.025Z,11.77
2018-08-16T19:52:30.309Z,12.90
2018-08-16T19:55:00.232Z,13.13
2018-08-16T19:57:30.424Z,13.73
2018-08-16T20:00:01.541Z,12.87
2018-08-16T20:02:31.356Z,13.20
2018-08-16T20:05:01.833Z,14.33
2018-08-16T20:07:31.691Z,13.77
2018-08-16T20:10:01.712Z,14.27
2018-08-16T20:12:31.647Z,13.40
2018-08-16T20:15:01.643Z,15.17
2018-08-16T20:17:31.593Z,13.37
2018-08-16T20:20:01.521Z,14.27
2018-08-16T20:22:32.057Z,14.73
2018-08-16T20:25:01.905Z,14.30
2018-08-16T20:27:31.786Z,13.33
2018-08-16T20:30:01.605Z,13.90
2018-08-16T20:32:31.772Z,14.63
2018-08-16T20:35:01.580Z,13.93
2018-08-16T20:37:31.508Z,14.30
2018-08-16T20:40:01.583Z,15.87
2018-08-16T20:42:31.436Z,14.03
2018-08-16T20:45:01.451Z,14.77
2018-08-16T20:47:31.275Z,13.90
2018-08-16T20:50:01.185Z,14.33
2018-08-16T20:52:31.160Z,14.00
2018-08-16T20:55:01.189Z,15.90
2018-08-16T20:57:31.184Z,15.10
2018-08-16T21:00:00.932Z,15.13
2018-08-16T21:02:31.091Z,15.27
2018-08-16T21:05:00.983Z,14.83
2018-08-16T21:07:31.187Z,15.43
2018-08-16T21:10:01.023Z,16.80
2018-08-16T21:12:30.815Z,15.73
2018-08-16T21:15:00.808Z,15.17
2018-08-16T21:17:30.887Z,15.67
2018-08-16T21:20:00.705Z,15.50
2018-08-16T21:22:30.705Z,16.03
2018-08-16T21:25:00.592Z,15.73
2018-08-16T21:27:30.598Z,14.93
2018-08-16T21:30:00.754Z,15.43
2018-08-16T21:32:30.869Z,14.73
2018-08-16T21:35:01.054Z,15.43
2018-08-16T21:37:30.976Z,14.97
2018-08-16T21:40:00.968Z,15.67
2018-08-16T21:42:31.051Z,15.90
2018-08-16T21:45:00.842Z,15.60
2018-08-16T21:47:30.963Z,15.77
2018-08-16T21:50:01.192Z,15.50
2018-08-16T21:52:31.041Z,15.83
2018-08-16T21:55:00.999Z,15.07
2018-08-16T21:57:30.936Z,15.70
2018-08-16T22:00:00.894Z,15.70
2018-08-16T22:02:30.837Z,16.57
2018-08-16T22:05:00.803Z,16.93
2018-08-16T22:08:11.841Z,16.83
2018-08-16T22:10:43.053Z,16.40
2018-08-16T22:13:12.943Z,15.53
2018-08-16T22:15:43.091Z,17.27
2018-08-16T22:18:13.138Z,16.43
2018-08-16T22:20:43.100Z,14.17
2018-08-16T22:23:13.038Z,15.23
2018-08-16T22:25:42.916Z,15.20
2018-08-16T22:28:13.000Z,15.73
2018-08-16T22:30:43.108Z,15.07
2018-08-16T22:33:12.974Z,15.13
2018-08-16T22:35:42.921Z,14.17
2018-08-16T22:38:12.904Z,15.57
2018-08-16T22:40:43.106Z,14.77
2018-08-16T22:43:13.177Z,15.53
2018-08-16T22:45:43.074Z,15.43
2018-08-16T22:48:12.931Z,15.83
2018-08-16T22:50:43.159Z,15.77
2018-08-16T22:53:13.210Z,15.40
2018-08-16T22:55:43.241Z,15.17
2018-08-16T22:58:13.056Z,14.60
2018-08-16T23:00:43.009Z,14.67
2018-08-16T23:03:12.936Z,14.80
2018-08-16T23:05:42.877Z,14.67
2018-08-16T23:08:12.950Z,14.90
2018-08-16T23:10:42.854Z,14.77
2018-08-16T23:13:12.845Z,15.40
2018-08-16T23:15:42.809Z,13.50
2018-08-16T23:18:12.649Z,14.60
2018-08-16T23:20:42.644Z,14.13
2018-08-16T23:23:12.679Z,14.60
2018-08-16T23:25:42.552Z,14.10
2018-08-16T23:28:12.908Z,14.23
2018-08-16T23:30:42.872Z,15.33
2018-08-16T23:33:12.780Z,13.83
2018-08-16T23:35:42.807Z,13.70
2018-08-16T23:38:12.755Z,14.53
2018-08-16T23:40:42.566Z,14.60
2018-08-16T23:43:12.560Z,14.67
2018-08-16T23:45:42.348Z,14.13
2018-08-16T23:48:26.212Z,14.70
2018-08-16T23:50:56.097Z,14.37
2018-08-16T23:53:25.960Z,14.67
2018-08-16T23:55:56.429Z,15.90
2018-08-16T23:58:26.389Z,15.13
